sensor_id;sensor_type;location;lat;lon;timestamp;P1;durP1;ratioP1;P2;durP2;ratioP2
39102;SDS011;24847;48.218;16.414;2023-08-07T00:04:35;3.83;;;0.30;;
39102;SDS011;24847;48.218;16.414;2023-08-07T00:09:38;1.20;;;0.20;;
39102;SDS011;24847;48.218;16.414;2023-08-07T00:14:40;0.45;;;0.10;;
39102;SDS011;24847;48.218;16.414;2023-08-07T00:19:43;0.57;;;0.20;;
39102;SDS011;24847;48.218;16.414;2023-08-07T00:24:46;0.10;;;0.10;;
39102;SDS011;24847;48.218;16.414;2023-08-07T00:29:49;2.20;;;0.20;;
39102;SDS011;24847;48.218;16.414;2023-08-07T00:34:51;0.43;;;0.20;;
39102;SDS011;24847;48.218;16.414;2023-08-07T00:39:55;1.10;;;0.10;;
39102;SDS011;24847;48.218;16.414;2023-08-07T00:44:58;0.65;;;0.10;;
39102;SDS011;24847;48.218;16.414;2023-08-07T00:50:01;0.38;;;0.20;;
39102;SDS011;24847;48.218;16.414;2023-08-07T00:55:07;0.70;;;0.20;;
39102;SDS011;24847;48.218;16.414;2023-08-07T01:00:11;0.20;;;0.20;;
39102;SDS011;24847;48.218;16.414;2023-08-07T01:05:16;0.40;;;0.20;;
39102;SDS011;24847;48.218;16.414;2023-08-07T01:10:20;0.57;;;0.30;;
39102;SDS011;24847;48.218;16.414;2023-08-07T01:15:33;0.25;;;0.20;;
39102;SDS011;24847;48.218;16.414;2023-08-07T01:20:37;0.63;;;0.52;;
39102;SDS011;24847;48.218;16.414;2023-08-07T01:25:41;0.55;;;0.20;;
39102;SDS011;24847;48.218;16.414;2023-08-07T01:30:45;0.65;;;0.10;;
39102;SDS011;24847;48.218;16.414;2023-08-07T01:35:53;0.45;;;0.20;;
39102;SDS011;24847;48.218;16.414;2023-08-07T01:40:58;0.20;;;0.20;;
39102;SDS011;24847;48.218;16.414;2023-08-07T01:46:02;0.40;;;0.22;;
39102;SDS011;24847;48.218;16.414;2023-08-07T01:51:07;1.48;;;0.30;;
39102;SDS011;24847;48.218;16.414;2023-08-07T01:56:10;0.40;;;0.28;;
39102;SDS011;24847;48.218;16.414;2023-08-07T02:01:13;0.38;;;0.30;;
39102;SDS011;24847;48.218;16.414;2023-08-07T02:06:15;0.68;;;0.40;;
39102;SDS011;24847;48.218;16.414;2023-08-07T02:11:19;0.85;;;0.32;;
39102;SDS011;24847;48.218;16.414;2023-08-07T02:16:21;0.45;;;0.20;;
39102;SDS011;24847;48.218;16.414;2023-08-07T02:21:24;1.38;;;0.20;;
39102;SDS011;24847;48.218;16.414;2023-08-07T02:26:27;0.60;;;0.30;;
39102;SDS011;24847;48.218;16.414;2023-08-07T02:31:29;0.60;;;0.30;;
39102;SDS011;24847;48.218;16.414;2023-08-07T02:36:32;0.50;;;0.30;;
39102;SDS011;24847;48.218;16.414;2023-08-07T02:41:36;0.50;;;0.38;;
39102;SDS011;24847;48.218;16.414;2023-08-07T02:46:38;0.30;;;0.20;;
39102;SDS011;24847;48.218;16.414;2023-08-07T02:51:40;0.40;;;0.30;;
39102;SDS011;24847;48.218;16.414;2023-08-07T02:56:44;1.40;;;0.40;;
39102;SDS011;24847;48.218;16.414;2023-08-07T03:01:46;0.75;;;0.30;;
39102;SDS011;24847;48.218;16.414;2023-08-07T03:06:48;0.45;;;0.28;;
39102;SDS011;24847;48.218;16.414;2023-08-07T03:11:52;0.93;;;0.30;;
39102;SDS011;24847;48.218;16.414;2023-08-07T03:16:54;0.50;;;0.30;;
39102;SDS011;24847;48.218;16.414;2023-08-07T03:21:56;0.82;;;0.45;;
39102;SDS011;24847;48.218;16.414;2023-08-07T03:27:00;1.13;;;0.40;;
39102;SDS011;24847;48.218;16.414;2023-08-07T03:32:02;0.90;;;0.47;;
39102;SDS011;24847;48.218;16.414;2023-08-07T03:37:05;0.75;;;0.38;;
39102;SDS011;24847;48.218;16.414;2023-08-07T03:42:09;0.90;;;0.43;;
39102;SDS011;24847;48.218;16.414;2023-08-07T03:47:11;0.38;;;0.28;;
39102;SDS011;24847;48.218;16.414;2023-08-07T03:52:14;0.38;;;0.30;;
39102;SDS011;24847;48.218;16.414;2023-08-07T03:57:19;0.50;;;0.30;;
39102;SDS011;24847;48.218;16.414;2023-08-07T04:02:21;0.30;;;0.20;;
39102;SDS011;24847;48.218;16.414;2023-08-07T04:07:23;0.80;;;0.30;;
39102;SDS011;24847;48.218;16.414;2023-08-07T04:12:27;0.20;;;0.20;;
39102;SDS011;24847;48.218;16.414;2023-08-07T04:17:29;0.40;;;0.25;;
39102;SDS011;24847;48.218;16.414;2023-08-07T04:22:31;0.52;;;0.30;;
39102;SDS011;24847;48.218;16.414;2023-08-07T04:27:35;1.15;;;0.25;;
39102;SDS011;24847;48.218;16.414;2023-08-07T04:32:38;0.32;;;0.30;;
39102;SDS011;24847;48.218;16.414;2023-08-07T04:37:41;0.80;;;0.30;;
39102;SDS011;24847;48.218;16.414;2023-08-07T04:42:44;1.45;;;0.20;;
39102;SDS011;24847;48.218;16.414;2023-08-07T04:47:46;0.28;;;0.20;;
39102;SDS011;24847;48.218;16.414;2023-08-07T04:52:48;0.43;;;0.20;;
39102;SDS011;24847;48.218;16.414;2023-08-07T04:57:52;0.40;;;0.20;;
39102;SDS011;24847;48.218;16.414;2023-08-07T05:02:54;0.30;;;0.20;;
39102;SDS011;24847;48.218;16.414;2023-08-07T05:07:57;0.17;;;0.10;;
39102;SDS011;24847;48.218;16.414;2023-08-07T05:13:01;0.28;;;0.10;;
39102;SDS011;24847;48.218;16.414;2023-08-07T05:18:04;0.20;;;0.15;;
39102;SDS011;24847;48.218;16.414;2023-08-07T05:23:06;2.67;;;0.30;;
39102;SDS011;24847;48.218;16.414;2023-08-07T05:28:11;0.10;;;0.08;;
39102;SDS011;24847;48.218;16.414;2023-08-07T05:33:13;0.20;;;0.10;;
39102;SDS011;24847;48.218;16.414;2023-08-07T05:38:16;0.52;;;0.10;;
39102;SDS011;24847;48.218;16.414;2023-08-07T05:43:19;0.22;;;0.10;;
39102;SDS011;24847;48.218;16.414;2023-08-07T05:48:21;0.28;;;0.20;;
39102;SDS011;24847;48.218;16.414;2023-08-07T05:53:24;0.20;;;0.10;;
39102;SDS011;24847;48.218;16.414;2023-08-07T05:58:27;0.52;;;0.10;;
39102;SDS011;24847;48.218;16.414;2023-08-07T06:03:29;0.40;;;0.10;;
39102;SDS011;24847;48.218;16.414;2023-08-07T06:08:32;0.40;;;0.10;;
39102;SDS011;24847;48.218;16.414;2023-08-07T06:13:36;0.20;;;0.10;;
39102;SDS011;24847;48.218;16.414;2023-08-07T06:18:38;0.30;;;0.00;;
39102;SDS011;24847;48.218;16.414;2023-08-07T06:23:40;0.22;;;0.10;;
39102;SDS011;24847;48.218;16.414;2023-08-07T06:28:44;0.88;;;0.00;;
39102;SDS011;24847;48.218;16.414;2023-08-07T06:33:46;0.77;;;0.10;;
39102;SDS011;24847;48.218;16.414;2023-08-07T06:38:50;0.10;;;0.00;;
39102;SDS011;24847;48.218;16.414;2023-08-07T06:43:54;1.35;;;0.10;;
39102;SDS011;24847;48.218;16.414;2023-08-07T06:48:56;4.10;;;0.20;;
39102;SDS011;24847;48.218;16.414;2023-08-07T06:53:59;2.58;;;0.10;;
39102;SDS011;24847;48.218;16.414;2023-08-07T06:59:02;0.10;;;0.00;;
39102;SDS011;24847;48.218;16.414;2023-08-07T07:04:05;0.10;;;0.03;;
39102;SDS011;24847;48.218;16.414;2023-08-07T07:09:07;0.20;;;0.10;;
39102;SDS011;24847;48.218;16.414;2023-08-07T07:14:11;0.90;;;0.10;;
39102;SDS011;24847;48.218;16.414;2023-08-07T07:19:13;0.40;;;0.10;;
39102;SDS011;24847;48.218;16.414;2023-08-07T07:24:16;0.30;;;0.10;;
39102;SDS011;24847;48.218;16.414;2023-08-07T07:29:20;0.65;;;0.20;;
39102;SDS011;24847;48.218;16.414;2023-08-07T07:34:22;0.20;;;0.17;;
39102;SDS011;24847;48.218;16.414;2023-08-07T07:39:24;0.25;;;0.20;;
39102;SDS011;24847;48.218;16.414;2023-08-07T07:44:28;0.35;;;0.13;;
39102;SDS011;24847;48.218;16.414;2023-08-07T07:49:32;0.38;;;0.20;;
39102;SDS011;24847;48.218;16.414;2023-08-07T07:54:34;0.90;;;0.30;;
39102;SDS011;24847;48.218;16.414;2023-08-07T07:59:38;0.60;;;0.20;;
39102;SDS011;24847;48.218;16.414;2023-08-07T08:04:40;0.10;;;0.10;;
39102;SDS011;24847;48.218;16.414;2023-08-07T08:09:43;0.20;;;0.13;;
39102;SDS011;24847;48.218;16.414;2023-08-07T08:14:46;0.20;;;0.17;;
39102;SDS011;24847;48.218;16.414;2023-08-07T08:19:49;0.13;;;0.10;;
39102;SDS011;24847;48.218;16.414;2023-08-07T08:24:52;1.90;;;0.30;;
39102;SDS011;24847;48.218;16.414;2023-08-07T08:29:56;2.35;;;0.20;;
39102;SDS011;24847;48.218;16.414;2023-08-07T08:34:58;0.35;;;0.20;;
39102;SDS011;24847;48.218;16.414;2023-08-07T08:40:00;0.40;;;0.20;;
39102;SDS011;24847;48.218;16.414;2023-08-07T08:45:05;0.43;;;0.20;;
39102;SDS011;24847;48.218;16.414;2023-08-07T08:50:12;0.85;;;0.20;;
39102;SDS011;24847;48.218;16.414;2023-08-07T08:55:16;0.20;;;0.17;;
39102;SDS011;24847;48.218;16.414;2023-08-07T09:00:20;0.68;;;0.32;;
39102;SDS011;24847;48.218;16.414;2023-08-07T09:05:26;0.65;;;0.30;;
39102;SDS011;24847;48.218;16.414;2023-08-07T09:10:29;1.33;;;0.30;;
39102;SDS011;24847;48.218;16.414;2023-08-07T09:15:35;1.17;;;0.30;;
39102;SDS011;24847;48.218;16.414;2023-08-07T09:20:39;0.45;;;0.20;;
39102;SDS011;24847;48.218;16.414;2023-08-07T09:25:42;0.70;;;0.30;;
39102;SDS011;24847;48.218;16.414;2023-08-07T09:30:46;0.30;;;0.20;;
39102;SDS011;24847;48.218;16.414;2023-08-07T09:35:49;0.60;;;0.30;;
39102;SDS011;24847;48.218;16.414;2023-08-07T09:40:51;0.52;;;0.38;;
39102;SDS011;24847;48.218;16.414;2023-08-07T09:46:01;0.60;;;0.20;;
39102;SDS011;24847;48.218;16.414;2023-08-07T09:51:04;0.50;;;0.30;;
39102;SDS011;24847;48.218;16.414;2023-08-07T09:56:07;0.45;;;0.30;;
39102;SDS011;24847;48.218;16.414;2023-08-07T10:01:10;0.40;;;0.30;;
39102;SDS011;24847;48.218;16.414;2023-08-07T10:06:13;0.43;;;0.40;;
39102;SDS011;24847;48.218;16.414;2023-08-07T10:11:15;0.35;;;0.20;;
39102;SDS011;24847;48.218;16.414;2023-08-07T10:16:19;0.47;;;0.30;;
39102;SDS011;24847;48.218;16.414;2023-08-07T10:21:22;1.05;;;0.40;;
39102;SDS011;24847;48.218;16.414;2023-08-07T10:26:26;0.73;;;0.30;;
39102;SDS011;24847;48.218;16.414;2023-08-07T10:31:30;0.63;;;0.30;;
39102;SDS011;24847;48.218;16.414;2023-08-07T10:36:35;0.40;;;0.30;;
39102;SDS011;24847;48.218;16.414;2023-08-07T10:41:39;1.02;;;0.40;;
39102;SDS011;24847;48.218;16.414;2023-08-07T10:46:48;0.70;;;0.50;;
39102;SDS011;24847;48.218;16.414;2023-08-07T10:51:52;0.50;;;0.40;;
39102;SDS011;24847;48.218;16.414;2023-08-07T10:56:56;0.40;;;0.20;;
39102;SDS011;24847;48.218;16.414;2023-08-07T11:02:03;0.52;;;0.30;;
39102;SDS011;24847;48.218;16.414;2023-08-07T11:07:21;0.80;;;0.30;;
39102;SDS011;24847;48.218;16.414;2023-08-07T11:12:25;0.60;;;0.40;;
39102;SDS011;24847;48.218;16.414;2023-08-07T11:17:33;0.70;;;0.40;;
39102;SDS011;24847;48.218;16.414;2023-08-07T11:22:35;0.57;;;0.40;;
39102;SDS011;24847;48.218;16.414;2023-08-07T11:27:39;0.57;;;0.30;;
39102;SDS011;24847;48.218;16.414;2023-08-07T11:32:43;1.05;;;0.50;;
39102;SDS011;24847;48.218;16.414;2023-08-07T11:37:45;1.00;;;0.57;;
39102;SDS011;24847;48.218;16.414;2023-08-07T11:42:48;0.85;;;0.45;;
39102;SDS011;24847;48.218;16.414;2023-08-07T11:47:52;0.60;;;0.38;;
39102;SDS011;24847;48.218;16.414;2023-08-07T11:52:56;0.77;;;0.40;;
39102;SDS011;24847;48.218;16.414;2023-08-07T11:58:02;0.63;;;0.50;;
39102;SDS011;24847;48.218;16.414;2023-08-07T12:08:30;0.80;;;0.52;;
39102;SDS011;24847;48.218;16.414;2023-08-07T12:13:36;0.70;;;0.45;;
39102;SDS011;24847;48.218;16.414;2023-08-07T12:18:42;0.82;;;0.40;;
39102;SDS011;24847;48.218;16.414;2023-08-07T12:23:45;1.30;;;0.43;;
39102;SDS011;24847;48.218;16.414;2023-08-07T12:28:48;1.48;;;0.70;;
39102;SDS011;24847;48.218;16.414;2023-08-07T12:33:52;1.63;;;0.68;;
39102;SDS011;24847;48.218;16.414;2023-08-07T12:38:54;0.57;;;0.40;;
39102;SDS011;24847;48.218;16.414;2023-08-07T12:43:57;1.15;;;0.50;;
39102;SDS011;24847;48.218;16.414;2023-08-07T12:49:02;1.17;;;0.80;;
39102;SDS011;24847;48.218;16.414;2023-08-07T12:54:05;1.40;;;0.63;;
39102;SDS011;24847;48.218;16.414;2023-08-07T12:59:07;4.00;;;0.70;;
39102;SDS011;24847;48.218;16.414;2023-08-07T13:04:11;1.00;;;0.68;;
39102;SDS011;24847;48.218;16.414;2023-08-07T13:09:15;1.13;;;0.82;;
39102;SDS011;24847;48.218;16.414;2023-08-07T13:14:17;0.88;;;0.50;;
39102;SDS011;24847;48.218;16.414;2023-08-07T13:19:21;1.42;;;0.70;;
39102;SDS011;24847;48.218;16.414;2023-08-07T13:24:23;1.17;;;0.60;;
39102;SDS011;24847;48.218;16.414;2023-08-07T13:29:26;2.08;;;0.80;;
39102;SDS011;24847;48.218;16.414;2023-08-07T13:34:31;1.23;;;0.75;;
39102;SDS011;24847;48.218;16.414;2023-08-07T13:39:33;1.75;;;0.70;;
39102;SDS011;24847;48.218;16.414;2023-08-07T13:44:35;0.90;;;0.63;;
39102;SDS011;24847;48.218;16.414;2023-08-07T13:49:40;1.33;;;0.80;;
39102;SDS011;24847;48.218;16.414;2023-08-07T13:54:43;2.35;;;0.80;;
39102;SDS011;24847;48.218;16.414;2023-08-07T13:59:47;0.93;;;0.60;;
39102;SDS011;24847;48.218;16.414;2023-08-07T14:04:52;1.23;;;0.60;;
39102;SDS011;24847;48.218;16.414;2023-08-07T14:09:57;0.50;;;0.40;;
39102;SDS011;24847;48.218;16.414;2023-08-07T14:15:01;0.95;;;0.50;;
39102;SDS011;24847;48.218;16.414;2023-08-07T14:20:07;2.05;;;0.68;;
39102;SDS011;24847;48.218;16.414;2023-08-07T14:25:11;3.22;;;2.53;;
39102;SDS011;24847;48.218;16.414;2023-08-07T14:30:14;1.23;;;1.00;;
39102;SDS011;24847;48.218;16.414;2023-08-07T14:35:17;2.45;;;0.70;;
39102;SDS011;24847;48.218;16.414;2023-08-07T14:40:20;1.33;;;0.70;;
39102;SDS011;24847;48.218;16.414;2023-08-07T14:45:22;0.90;;;0.60;;
39102;SDS011;24847;48.218;16.414;2023-08-07T14:50:26;0.85;;;0.75;;
39102;SDS011;24847;48.218;16.414;2023-08-07T14:55:28;0.77;;;0.50;;
39102;SDS011;24847;48.218;16.414;2023-08-07T15:00:31;1.30;;;0.60;;
39102;SDS011;24847;48.218;16.414;2023-08-07T15:05:34;1.48;;;0.55;;
39102;SDS011;24847;48.218;16.414;2023-08-07T15:10:36;1.27;;;0.63;;
39102;SDS011;24847;48.218;16.414;2023-08-07T15:15:39;1.35;;;0.50;;
39102;SDS011;24847;48.218;16.414;2023-08-07T15:20:43;1.55;;;0.80;;
39102;SDS011;24847;48.218;16.414;2023-08-07T15:25:48;1.20;;;0.80;;
39102;SDS011;24847;48.218;16.414;2023-08-07T15:30:50;0.90;;;0.60;;
39102;SDS011;24847;48.218;16.414;2023-08-07T15:35:55;1.50;;;0.57;;
39102;SDS011;24847;48.218;16.414;2023-08-07T15:40:58;0.57;;;0.57;;
39102;SDS011;24847;48.218;16.414;2023-08-07T15:46:01;1.15;;;0.70;;
39102;SDS011;24847;48.218;16.414;2023-08-07T15:51:06;1.60;;;0.60;;
39102;SDS011;24847;48.218;16.414;2023-08-07T15:56:08;2.08;;;0.50;;
39102;SDS011;24847;48.218;16.414;2023-08-07T16:01:10;1.05;;;0.70;;
39102;SDS011;24847;48.218;16.414;2023-08-07T16:06:14;0.80;;;0.60;;
39102;SDS011;24847;48.218;16.414;2023-08-07T16:11:19;0.50;;;0.32;;
39102;SDS011;24847;48.218;16.414;2023-08-07T16:16:21;0.90;;;0.50;;
39102;SDS011;24847;48.218;16.414;2023-08-07T16:21:25;1.00;;;0.55;;
39102;SDS011;24847;48.218;16.414;2023-08-07T16:26:28;0.95;;;0.45;;
39102;SDS011;24847;48.218;16.414;2023-08-07T16:31:31;0.85;;;0.50;;
39102;SDS011;24847;48.218;16.414;2023-08-07T16:36:35;0.70;;;0.52;;
39102;SDS011;24847;48.218;16.414;2023-08-07T16:41:38;0.90;;;0.70;;
39102;SDS011;24847;48.218;16.414;2023-08-07T16:46:45;0.38;;;0.30;;
39102;SDS011;24847;48.218;16.414;2023-08-07T16:51:50;0.90;;;0.38;;
39102;SDS011;24847;48.218;16.414;2023-08-07T16:56:58;0.55;;;0.40;;
39102;SDS011;24847;48.218;16.414;2023-08-07T17:02:04;0.98;;;0.40;;
39102;SDS011;24847;48.218;16.414;2023-08-07T17:07:14;1.23;;;0.40;;
39102;SDS011;24847;48.218;16.414;2023-08-07T17:12:17;0.30;;;0.20;;
39102;SDS011;24847;48.218;16.414;2023-08-07T17:17:21;0.65;;;0.40;;
39102;SDS011;24847;48.218;16.414;2023-08-07T17:22:29;0.60;;;0.47;;
39102;SDS011;24847;48.218;16.414;2023-08-07T17:27:34;0.98;;;0.50;;
39102;SDS011;24847;48.218;16.414;2023-08-07T17:32:37;0.60;;;0.38;;
39102;SDS011;24847;48.218;16.414;2023-08-07T17:37:43;0.65;;;0.40;;
39102;SDS011;24847;48.218;16.414;2023-08-07T17:42:46;1.00;;;0.40;;
39102;SDS011;24847;48.218;16.414;2023-08-07T17:47:55;0.40;;;0.30;;
39102;SDS011;24847;48.218;16.414;2023-08-07T17:53:10;0.63;;;0.47;;
39102;SDS011;24847;48.218;16.414;2023-08-07T17:58:16;0.30;;;0.30;;
39102;SDS011;24847;48.218;16.414;2023-08-07T18:08:39;0.85;;;0.30;;
39102;SDS011;24847;48.218;16.414;2023-08-07T18:13:42;0.30;;;0.20;;
39102;SDS011;24847;48.218;16.414;2023-08-07T18:18:49;0.68;;;0.30;;
39102;SDS011;24847;48.218;16.414;2023-08-07T18:23:58;0.40;;;0.30;;
39102;SDS011;24847;48.218;16.414;2023-08-07T18:29:02;0.30;;;0.20;;
39102;SDS011;24847;48.218;16.414;2023-08-07T18:34:08;0.80;;;0.30;;
39102;SDS011;24847;48.218;16.414;2023-08-07T18:39:16;0.50;;;0.30;;
39102;SDS011;24847;48.218;16.414;2023-08-07T18:44:26;0.93;;;0.83;;
39102;SDS011;24847;48.218;16.414;2023-08-07T18:49:44;0.47;;;0.35;;
39102;SDS011;24847;48.218;16.414;2023-08-07T18:54:57;0.60;;;0.40;;
39102;SDS011;24847;48.218;16.414;2023-08-07T19:00:06;0.38;;;0.25;;
39102;SDS011;24847;48.218;16.414;2023-08-07T19:05:13;0.88;;;0.40;;
39102;SDS011;24847;48.218;16.414;2023-08-07T19:10:18;0.88;;;0.68;;
39102;SDS011;24847;48.218;16.414;2023-08-07T19:16:00;0.93;;;0.50;;
39102;SDS011;24847;48.218;16.414;2023-08-07T19:21:16;0.95;;;0.40;;
39102;SDS011;24847;48.218;16.414;2023-08-07T19:26:22;0.50;;;0.40;;
39102;SDS011;24847;48.218;16.414;2023-08-07T19:31:29;2.00;;;0.70;;
39102;SDS011;24847;48.218;16.414;2023-08-07T19:36:49;0.90;;;0.70;;
39102;SDS011;24847;48.218;16.414;2023-08-07T19:41:55;0.65;;;0.45;;
39102;SDS011;24847;48.218;16.414;2023-08-07T19:47:04;0.93;;;0.77;;
39102;SDS011;24847;48.218;16.414;2023-08-07T19:52:11;2.03;;;0.90;;
39102;SDS011;24847;48.218;16.414;2023-08-07T19:57:20;1.05;;;0.80;;
39102;SDS011;24847;48.218;16.414;2023-08-07T20:02:43;0.60;;;0.40;;
39102;SDS011;24847;48.218;16.414;2023-08-07T20:07:52;0.90;;;0.60;;
39102;SDS011;24847;48.218;16.414;2023-08-07T20:12:56;0.90;;;0.50;;
39102;SDS011;24847;48.218;16.414;2023-08-07T20:18:03;1.20;;;0.70;;
39102;SDS011;24847;48.218;16.414;2023-08-07T20:23:07;0.73;;;0.60;;
39102;SDS011;24847;48.218;16.414;2023-08-07T20:28:12;0.77;;;0.40;;
39102;SDS011;24847;48.218;16.414;2023-08-07T20:33:15;0.88;;;0.40;;
39102;SDS011;24847;48.218;16.414;2023-08-07T20:38:21;1.10;;;0.60;;
39102;SDS011;24847;48.218;16.414;2023-08-07T20:43:25;0.68;;;0.45;;
39102;SDS011;24847;48.218;16.414;2023-08-07T20:48:28;0.70;;;0.57;;
39102;SDS011;24847;48.218;16.414;2023-08-07T20:53:33;1.60;;;0.60;;
39102;SDS011;24847;48.218;16.414;2023-08-07T20:58:41;0.60;;;0.47;;
39102;SDS011;24847;48.218;16.414;2023-08-07T21:03:44;0.90;;;0.65;;
39102;SDS011;24847;48.218;16.414;2023-08-07T21:08:49;0.73;;;0.40;;
39102;SDS011;24847;48.218;16.414;2023-08-07T21:13:52;1.02;;;0.60;;
39102;SDS011;24847;48.218;16.414;2023-08-07T21:18:55;0.70;;;0.43;;
39102;SDS011;24847;48.218;16.414;2023-08-07T21:23:58;0.95;;;0.40;;
39102;SDS011;24847;48.218;16.414;2023-08-07T21:29:01;1.88;;;0.70;;
39102;SDS011;24847;48.218;16.414;2023-08-07T21:34:03;0.68;;;0.40;;
39102;SDS011;24847;48.218;16.414;2023-08-07T21:39:07;0.40;;;0.22;;
39102;SDS011;24847;48.218;16.414;2023-08-07T21:44:09;0.32;;;0.30;;
39102;SDS011;24847;48.218;16.414;2023-08-07T21:49:12;0.73;;;0.38;;
39102;SDS011;24847;48.218;16.414;2023-08-07T21:54:16;1.85;;;0.30;;
39102;SDS011;24847;48.218;16.414;2023-08-07T21:59:22;0.50;;;0.30;;
39102;SDS011;24847;48.218;16.414;2023-08-07T22:04:27;0.55;;;0.30;;
39102;SDS011;24847;48.218;16.414;2023-08-07T22:09:31;0.75;;;0.38;;
39102;SDS011;24847;48.218;16.414;2023-08-07T22:14:36;0.50;;;0.28;;
39102;SDS011;24847;48.218;16.414;2023-08-07T22:19:39;0.52;;;0.30;;
39102;SDS011;24847;48.218;16.414;2023-08-07T22:24:42;0.50;;;0.40;;
39102;SDS011;24847;48.218;16.414;2023-08-07T22:29:45;0.75;;;0.50;;
39102;SDS011;24847;48.218;16.414;2023-08-07T22:34:49;0.38;;;0.30;;
39102;SDS011;24847;48.218;16.414;2023-08-07T22:39:52;0.98;;;0.45;;
39102;SDS011;24847;48.218;16.414;2023-08-07T22:44:55;0.73;;;0.30;;
39102;SDS011;24847;48.218;16.414;2023-08-07T22:49:57;0.70;;;0.50;;
39102;SDS011;24847;48.218;16.414;2023-08-07T22:55:01;0.90;;;0.65;;
39102;SDS011;24847;48.218;16.414;2023-08-07T23:00:04;1.10;;;0.50;;
39102;SDS011;24847;48.218;16.414;2023-08-07T23:05:10;0.70;;;0.47;;
39102;SDS011;24847;48.218;16.414;2023-08-07T23:10:16;0.90;;;0.60;;
39102;SDS011;24847;48.218;16.414;2023-08-07T23:15:21;0.45;;;0.40;;
39102;SDS011;24847;48.218;16.414;2023-08-07T23:20:24;0.82;;;0.50;;
39102;SDS011;24847;48.218;16.414;2023-08-07T23:25:27;1.45;;;0.73;;
39102;SDS011;24847;48.218;16.414;2023-08-07T23:30:29;1.05;;;0.65;;
39102;SDS011;24847;48.218;16.414;2023-08-07T23:35:32;0.70;;;0.55;;
39102;SDS011;24847;48.218;16.414;2023-08-07T23:40:37;0.45;;;0.40;;
39102;SDS011;24847;48.218;16.414;2023-08-07T23:45:41;1.10;;;0.55;;
39102;SDS011;24847;48.218;16.414;2023-08-07T23:50:44;0.68;;;0.57;;
39102;SDS011;24847;48.218;16.414;2023-08-07T23:55:48;0.40;;;0.40;;
